UATG/GUW METAR and TAF weather

Enter ICAO airport designator
Station Type Date Time Source
UATG METAR 2021/04/17 01:00 UTC NOAA

UATG 170100Z 23005MPS 5000 BR NSC 10/09 Q1015 R14/CLRD70 NOSIG RMK QFE763/1018


Station Type Date Time Source
UATG Decoded METAR 2021/04/17 01:00 UTC NOAA

Station name not available
Apr 16, 2021 - 09:00 PM EDT / 2021.04.17 0100 UTC
Wind: from the SW (230 degrees) at 11 MPH (10 KT):0
Visibility: 3 mile(s):0
Weather: mist
Temperature: 50 F (10 C)
Dew Point: 48 F (9 C)
Relative Humidity: 93%
Pressure (altimeter): 29.97 in. Hg (1015 hPa)
ob: UATG 170100Z 23005MPS 5000 BR NSC 10/09 Q1015 R14/CLRD70 NOSIG RMK QFE763/1018
cycle: 1

Station Type Date Time Source
UATG TAF 2021/04/16 18:21 UTC NOAA

TAF UATG 161700Z 1618/1718 26006MPS 9999 SCT030CB TX25/1712Z TN11/1702Z
BECMG 1620/1622 3100 BR SCT011
FM170600 25007G12MPS 9999 SCT033CB

Example: see airport list